createdAt,value
2018-03-07T00:01:10.601Z,70.46
2018-03-07T00:03:38.535Z,70.32
2018-03-07T00:06:06.586Z,69.11
2018-03-07T00:08:34.542Z,69.63
2018-03-07T00:11:02.509Z,70.05
2018-03-07T00:13:30.462Z,69.05
2018-03-07T00:15:58.346Z,70.60
2018-03-07T00:18:26.262Z,71.85
2018-03-07T00:20:54.197Z,71.30
2018-03-07T00:23:22.715Z,70.73
2018-03-07T00:25:50.642Z,70.98
2018-03-07T00:28:18.742Z,71.54
2018-03-07T00:30:46.699Z,68.53
2018-03-07T00:33:14.686Z,67.21
2018-03-07T00:35:42.625Z,62.67
2018-03-07T00:38:10.550Z,59.50
2018-03-07T00:40:38.429Z,57.23
2018-03-07T00:43:06.371Z,55.95
2018-03-07T00:45:34.294Z,56.98
2018-03-07T00:48:02.280Z,53.56
2018-03-07T00:50:30.214Z,53.56
2018-03-07T00:52:58.150Z,54.67
2018-03-07T00:55:26.077Z,53.32
2018-03-07T00:57:54.069Z,53.06
2018-03-07T01:00:22.057Z,53.20
2018-03-07T01:02:49.979Z,52.37
2018-03-07T01:05:17.885Z,51.48
2018-03-07T01:07:45.869Z,52.89
2018-03-07T01:10:13.785Z,52.24
2018-03-07T01:12:41.768Z,51.87
2018-03-07T01:15:09.692Z,51.34
2018-03-07T01:17:37.651Z,50.79
2018-03-07T01:20:05.615Z,50.97
2018-03-07T01:22:33.636Z,51.31
2018-03-07T01:25:02.016Z,50.49
2018-03-07T01:27:29.984Z,50.80
2018-03-07T01:29:57.871Z,50.10
2018-03-07T01:32:25.829Z,49.04
2018-03-07T01:34:53.728Z,49.08
2018-03-07T01:37:21.673Z,49.71
2018-03-07T01:39:49.752Z,51.34
2018-03-07T01:42:17.608Z,50.49
2018-03-07T01:44:45.500Z,49.89
2018-03-07T01:47:13.453Z,52.77
2018-03-07T01:49:41.357Z,52.74
2018-03-07T01:52:09.354Z,54.57
2018-03-07T01:54:37.272Z,56.04
2018-03-07T01:57:05.192Z,55.94
2018-03-07T01:59:33.087Z,52.68
2018-03-07T02:02:01.032Z,59.66
2018-03-07T02:04:29.049Z,58.61
2018-03-07T02:06:56.941Z,55.23
2018-03-07T02:09:24.949Z,56.41
2018-03-07T02:11:52.921Z,55.92
2018-03-07T02:14:20.842Z,56.96
2018-03-07T02:16:48.754Z,56.60
2018-03-07T02:19:16.829Z,57.12
2018-03-07T02:21:44.730Z,55.46
2018-03-07T02:24:12.646Z,55.73
2018-03-07T02:26:40.817Z,57.25
2018-03-07T02:29:08.681Z,57.38
2018-03-07T02:31:36.613Z,57.26
2018-03-07T02:34:04.595Z,57.17
2018-03-07T02:36:33.613Z,57.48
2018-03-07T02:39:01.576Z,56.82
2018-03-07T02:41:29.496Z,57.43
2018-03-07T02:43:57.449Z,57.74
2018-03-07T02:46:25.446Z,59.08
2018-03-07T02:48:53.476Z,59.49
2018-03-07T02:51:21.468Z,57.92
2018-03-07T02:53:49.386Z,58.55
2018-03-07T02:56:17.340Z,58.74
2018-03-07T02:58:45.353Z,59.50
2018-03-07T03:01:13.267Z,59.55
2018-03-07T03:03:41.202Z,58.73
2018-03-07T03:06:09.207Z,58.71
2018-03-07T03:08:37.134Z,59.33
2018-03-07T03:11:05.069Z,59.54
2018-03-07T03:13:33.064Z,59.75
2018-03-07T03:16:01.076Z,59.51
2018-03-07T03:18:28.976Z,58.96
2018-03-07T03:20:56.960Z,60.04
2018-03-07T03:23:24.913Z,59.29
2018-03-07T03:25:52.870Z,59.06
2018-03-07T03:28:21.147Z,59.29
2018-03-07T03:30:49.117Z,60.82
2018-03-07T03:33:17.021Z,60.15
2018-03-07T03:35:45.048Z,60.31
2018-03-07T03:38:12.924Z,62.30
2018-03-07T03:40:40.913Z,63.14
2018-03-07T03:43:08.861Z,61.22
2018-03-07T03:45:36.792Z,60.61
2018-03-07T03:48:04.773Z,60.23
2018-03-07T03:50:32.780Z,61.22
2018-03-07T03:53:00.711Z,62.73
2018-03-07T03:55:28.621Z,61.60
2018-03-07T03:57:56.613Z,62.72
2018-03-07T04:00:24.526Z,62.34
2018-03-07T04:02:52.477Z,61.89
2018-03-07T04:05:20.448Z,61.09
2018-03-07T04:07:48.348Z,61.25
2018-03-07T04:10:16.321Z,62.61
2018-03-07T04:12:44.270Z,64.95
2018-03-07T04:15:12.191Z,67.02
2018-03-07T04:17:40.137Z,66.04
2018-03-07T04:20:08.063Z,63.73
2018-03-07T04:22:36.138Z,62.42
2018-03-07T04:25:04.124Z,61.84
2018-03-07T04:27:32.148Z,61.76
2018-03-07T04:30:00.469Z,64.16
2018-03-07T04:32:28.426Z,64.03
2018-03-07T04:34:56.357Z,65.74
2018-03-07T04:37:24.275Z,64.23
2018-03-07T04:39:52.225Z,64.13
2018-03-07T04:42:20.162Z,64.94
2018-03-07T04:44:48.112Z,64.27
2018-03-07T04:47:16.077Z,63.99
2018-03-07T04:49:44.032Z,63.21
2018-03-07T04:52:11.982Z,64.77
2018-03-07T04:54:39.814Z,63.99
2018-03-07T04:57:07.729Z,64.30
2018-03-07T04:59:35.573Z,63.67
2018-03-07T05:02:03.496Z,61.81
2018-03-07T05:04:31.436Z,61.78
2018-03-07T05:06:59.401Z,61.82
2018-03-07T05:09:27.382Z,64.03
2018-03-07T05:11:55.347Z,63.10
2018-03-07T05:14:23.269Z,64.40
2018-03-07T05:16:51.217Z,62.79
2018-03-07T05:19:19.173Z,62.97
2018-03-07T05:21:47.180Z,62.10
2018-03-07T05:24:15.157Z,62.62
2018-03-07T05:26:43.143Z,61.82
2018-03-07T05:29:11.129Z,61.71
2018-03-07T05:31:39.581Z,62.80
2018-03-07T05:34:07.592Z,61.20
2018-03-07T05:36:35.601Z,60.25
2018-03-07T05:39:03.662Z,61.39
2018-03-07T05:41:31.618Z,64.00
2018-03-07T05:43:59.614Z,63.26
2018-03-07T05:46:27.609Z,61.87
2018-03-07T05:48:55.590Z,62.90
2018-03-07T05:51:23.549Z,61.24
2018-03-07T05:53:51.465Z,59.18
2018-03-07T05:56:19.570Z,58.86
2018-03-07T05:58:47.585Z,61.46
2018-03-07T06:01:15.506Z,61.78
2018-03-07T06:03:43.436Z,60.78
2018-03-07T06:06:11.375Z,60.17
2018-03-07T06:08:39.294Z,60.93
2018-03-07T06:11:07.231Z,60.12
2018-03-07T06:13:35.130Z,61.50
2018-03-07T06:16:03.025Z,61.16
2018-03-07T06:18:30.902Z,59.63
2018-03-07T06:20:58.878Z,57.39
2018-03-07T06:23:26.789Z,55.63
2018-03-07T06:25:54.781Z,53.78
2018-03-07T06:28:22.751Z,54.34
2018-03-07T06:30:50.667Z,52.99
2018-03-07T06:33:18.988Z,53.49
2018-03-07T06:35:46.972Z,53.30
2018-03-07T06:38:14.863Z,51.19
2018-03-07T06:40:42.866Z,52.29
2018-03-07T06:43:10.824Z,52.86
2018-03-07T06:45:38.781Z,51.32
2018-03-07T06:48:06.738Z,52.20
2018-03-07T06:50:34.674Z,51.47
2018-03-07T06:53:02.697Z,50.12
2018-03-07T06:55:30.603Z,49.21
2018-03-07T06:57:58.505Z,51.91
2018-03-07T07:00:26.397Z,49.47
2018-03-07T07:02:54.343Z,48.58
2018-03-07T07:05:22.255Z,47.49
2018-03-07T07:07:50.218Z,46.67
2018-03-07T07:10:18.222Z,46.16
2018-03-07T07:12:46.214Z,45.95
2018-03-07T07:15:14.158Z,41.66
2018-03-07T07:17:42.109Z,42.34
2018-03-07T07:20:10.034Z,39.77
2018-03-07T07:22:38.470Z,40.10
2018-03-07T07:25:06.433Z,40.67
2018-03-07T07:27:34.345Z,42.22
2018-03-07T07:30:02.378Z,41.62
2018-03-07T07:32:30.267Z,41.56
2018-03-07T07:34:58.585Z,39.93
2018-03-07T07:37:26.494Z,39.98
2018-03-07T07:39:54.397Z,40.47
2018-03-07T07:42:22.361Z,39.78
2018-03-07T07:44:50.302Z,41.86
2018-03-07T07:47:18.808Z,39.06
2018-03-07T07:49:46.822Z,39.07
2018-03-07T07:52:14.861Z,31.66
2018-03-07T07:54:42.811Z,35.04
2018-03-07T07:57:10.728Z,34.69
2018-03-07T07:59:38.638Z,31.56
2018-03-07T08:02:06.671Z,33.45
2018-03-07T08:04:34.606Z,34.96
2018-03-07T08:07:02.548Z,34.46
2018-03-07T08:09:30.437Z,33.96
2018-03-07T08:11:58.413Z,32.39
2018-03-07T08:14:26.305Z,32.28
2018-03-07T08:16:54.248Z,31.32
2018-03-07T08:19:22.173Z,32.54
2018-03-07T08:21:50.128Z,30.57
2018-03-07T08:24:18.080Z,32.78
2018-03-07T08:26:46.009Z,30.65
2018-03-07T08:29:14.162Z,31.54
2018-03-07T08:31:42.160Z,29.98
2018-03-07T08:34:10.134Z,30.00
2018-03-07T08:36:38.541Z,28.95
2018-03-07T08:39:06.486Z,25.83
2018-03-07T08:41:34.504Z,26.10
2018-03-07T08:44:02.502Z,27.10
2018-03-07T08:46:30.452Z,25.80
2018-03-07T08:48:58.414Z,28.25
2018-03-07T08:51:26.540Z,27.50
2018-03-07T08:53:54.510Z,26.85
2018-03-07T08:56:22.513Z,25.14
2018-03-07T08:58:50.573Z,26.09
2018-03-07T09:01:18.676Z,25.56
2018-03-07T09:03:46.615Z,22.58
2018-03-07T09:06:14.589Z,23.56
2018-03-07T09:08:42.573Z,25.42
2018-03-07T09:11:10.533Z,22.16
2018-03-07T09:13:38.484Z,21.68
2018-03-07T09:16:06.436Z,22.17
2018-03-07T09:18:34.402Z,22.23
2018-03-07T09:21:02.302Z,23.13
2018-03-07T09:23:30.252Z,24.09
2018-03-07T09:25:58.214Z,22.18
2018-03-07T09:28:26.080Z,22.78
2018-03-07T09:30:54.050Z,24.54
2018-03-07T09:33:22.033Z,23.15
2018-03-07T09:35:50.020Z,23.92
2018-03-07T09:38:18.466Z,21.64
2018-03-07T09:40:46.393Z,20.08
2018-03-07T09:43:14.321Z,21.52
2018-03-07T09:45:42.282Z,21.00
2018-03-07T09:48:10.181Z,21.29
2018-03-07T09:50:38.104Z,18.01
2018-03-07T09:53:06.010Z,17.58
2018-03-07T09:55:33.948Z,18.66
2018-03-07T09:58:01.956Z,17.94
2018-03-07T10:00:29.946Z,14.92
2018-03-07T10:02:57.972Z,18.27
2018-03-07T10:05:26.070Z,18.85
2018-03-07T10:07:54.005Z,17.27
2018-03-07T10:10:21.977Z,18.08
2018-03-07T10:12:49.967Z,20.23
2018-03-07T10:15:17.965Z,19.63
2018-03-07T10:17:45.969Z,20.81
2018-03-07T10:20:13.878Z,21.69
2018-03-07T10:22:41.799Z,21.01
2018-03-07T10:25:09.778Z,19.75
2018-03-07T10:27:37.727Z,18.60
2018-03-07T10:30:05.741Z,17.41
2018-03-07T10:32:33.737Z,18.69
2018-03-07T10:35:01.679Z,18.30
2018-03-07T10:37:29.756Z,20.22
2018-03-07T10:39:58.212Z,19.55
2018-03-07T10:42:26.196Z,18.91
2018-03-07T10:44:54.160Z,18.84
2018-03-07T10:47:22.147Z,20.46
2018-03-07T10:49:50.166Z,20.75
2018-03-07T10:52:18.064Z,22.51
2018-03-07T10:54:46.107Z,22.14
2018-03-07T10:57:14.048Z,21.55
2018-03-07T10:59:42.075Z,21.60
2018-03-07T11:02:10.065Z,20.34
2018-03-07T11:04:38.099Z,19.61
2018-03-07T11:07:06.229Z,19.65
2018-03-07T11:09:34.184Z,21.07
2018-03-07T11:12:02.152Z,21.07
2018-03-07T11:14:30.092Z,20.84
2018-03-07T11:16:58.138Z,22.36
2018-03-07T11:19:26.084Z,22.89
2018-03-07T11:21:54.016Z,19.88
2018-03-07T11:24:22.000Z,19.80
2018-03-07T11:26:49.933Z,20.15
2018-03-07T11:29:17.842Z,21.50
2018-03-07T11:31:45.913Z,21.24
2018-03-07T11:34:13.881Z,20.87
2018-03-07T11:36:41.868Z,19.34
2018-03-07T11:39:09.842Z,21.00
2018-03-07T11:41:38.232Z,21.36
2018-03-07T11:44:06.290Z,21.55
2018-03-07T11:46:34.294Z,21.19
2018-03-07T11:49:02.230Z,22.92
2018-03-07T11:51:30.186Z,22.35
2018-03-07T11:53:58.108Z,21.81
2018-03-07T11:56:26.121Z,21.59
2018-03-07T11:58:54.302Z,19.39
2018-03-07T12:01:22.263Z,19.37
2018-03-07T12:03:50.230Z,17.51
2018-03-07T12:06:18.202Z,21.48
2018-03-07T12:08:46.163Z,21.04
2018-03-07T12:11:14.075Z,21.62
2018-03-07T12:13:42.080Z,21.64
2018-03-07T12:16:10.010Z,20.79
2018-03-07T12:18:38.030Z,18.51
2018-03-07T12:21:05.985Z,19.05
2018-03-07T12:23:33.945Z,20.27
2018-03-07T12:26:01.966Z,19.17
2018-03-07T12:28:29.950Z,19.61
2018-03-07T12:30:57.902Z,18.44
2018-03-07T12:33:26.779Z,18.33
2018-03-07T12:35:54.770Z,16.64
2018-03-07T12:38:22.688Z,18.83
2018-03-07T12:40:53.435Z,15.86
2018-03-07T12:43:21.795Z,17.69
2018-03-07T12:45:50.072Z,20.50
2018-03-07T12:48:18.038Z,16.38
2018-03-07T12:50:45.964Z,16.67
2018-03-07T12:53:13.923Z,16.78
2018-03-07T12:55:41.958Z,17.18
2018-03-07T12:58:09.954Z,15.90
2018-03-07T13:00:37.879Z,17.03
2018-03-07T13:03:05.865Z,14.59
2018-03-07T13:05:33.822Z,15.48
2018-03-07T13:08:01.801Z,14.48
2018-03-07T13:10:29.748Z,13.79
2018-03-07T13:12:57.712Z,14.13
2018-03-07T13:15:25.689Z,14.98
2018-03-07T13:17:53.705Z,15.72
2018-03-07T13:20:21.582Z,15.03
2018-03-07T13:22:49.542Z,16.56
2018-03-07T13:25:17.524Z,12.56
2018-03-07T13:27:45.506Z,14.42
2018-03-07T13:30:13.585Z,15.81
2018-03-07T13:32:41.518Z,14.75
2018-03-07T13:35:09.406Z,15.59
2018-03-07T13:37:37.448Z,15.16
2018-03-07T13:40:05.418Z,14.96
2018-03-07T13:42:33.385Z,14.67
2018-03-07T13:45:01.640Z,13.28
2018-03-07T13:47:29.676Z,13.27
2018-03-07T13:49:57.637Z,16.44
2018-03-07T13:52:25.599Z,17.78
2018-03-07T13:54:53.530Z,16.97
2018-03-07T13:57:21.476Z,16.78
2018-03-07T13:59:49.416Z,18.37
2018-03-07T14:02:17.368Z,16.94
2018-03-07T14:04:45.313Z,18.24
2018-03-07T14:07:13.269Z,19.36
2018-03-07T14:09:41.238Z,17.28
2018-03-07T14:12:09.177Z,17.84
2018-03-07T14:14:37.182Z,19.01
2018-03-07T14:17:05.148Z,19.83
2018-03-07T14:19:33.139Z,21.90
2018-03-07T14:22:01.088Z,21.41
2018-03-07T14:24:28.991Z,21.25
2018-03-07T14:26:56.947Z,21.15
2018-03-07T14:29:24.884Z,22.14
2018-03-07T14:31:52.904Z,21.69
2018-03-07T14:34:20.871Z,22.23
2018-03-07T14:36:48.798Z,22.83
2018-03-07T14:39:16.811Z,22.24
2018-03-07T14:41:44.785Z,23.47
2018-03-07T14:44:12.732Z,22.81
2018-03-07T14:46:41.048Z,23.61
2018-03-07T14:49:09.038Z,23.60
2018-03-07T14:51:36.925Z,23.01
2018-03-07T14:54:04.919Z,22.27
2018-03-07T14:56:32.793Z,21.93
2018-03-07T14:59:00.754Z,22.66
2018-03-07T15:01:28.652Z,22.27
2018-03-07T15:03:56.521Z,22.91
2018-03-07T15:06:24.444Z,22.23
2018-03-07T15:08:52.364Z,23.12
2018-03-07T15:11:20.320Z,23.33
2018-03-07T15:13:48.241Z,25.51
2018-03-07T15:16:16.181Z,24.40
2018-03-07T15:18:44.171Z,25.26
2018-03-07T15:21:12.090Z,24.36
2018-03-07T15:23:40.083Z,24.88
2018-03-07T15:26:08.057Z,24.36
2018-03-07T15:28:35.964Z,25.51
2018-03-07T15:31:04.023Z,25.70
2018-03-07T15:33:31.912Z,26.25
2018-03-07T15:35:59.853Z,27.12
2018-03-07T15:38:27.802Z,27.71
2018-03-07T15:40:55.715Z,28.46
2018-03-07T15:43:23.657Z,27.66
2018-03-07T15:45:51.631Z,28.91
2018-03-07T15:48:19.817Z,28.62
2018-03-07T15:50:47.858Z,28.52
2018-03-07T15:53:15.789Z,28.57
2018-03-07T15:55:43.758Z,29.15
2018-03-07T15:58:11.818Z,28.36
2018-03-07T16:00:39.737Z,28.82
2018-03-07T16:03:07.701Z,29.85
2018-03-07T16:05:35.602Z,29.02
2018-03-07T16:08:03.521Z,28.99
2018-03-07T16:10:31.470Z,28.94
2018-03-07T16:12:59.377Z,31.54
2018-03-07T16:15:27.394Z,32.57
2018-03-07T16:17:55.563Z,32.54
2018-03-07T16:20:23.527Z,33.68
2018-03-07T16:22:51.529Z,34.91
2018-03-07T16:25:19.457Z,33.88
2018-03-07T16:27:47.347Z,33.45
2018-03-07T16:30:15.320Z,33.21
2018-03-07T16:32:43.349Z,33.94
2018-03-07T16:35:11.378Z,34.83
2018-03-07T16:37:39.326Z,35.48
2018-03-07T16:40:07.258Z,35.58
2018-03-07T16:42:35.212Z,36.49
2018-03-07T16:45:03.142Z,36.52
2018-03-07T16:47:31.057Z,37.19
2018-03-07T16:49:59.473Z,37.20
2018-03-07T16:52:27.449Z,36.38
2018-03-07T16:54:55.371Z,36.82
2018-03-07T16:57:23.333Z,36.61
2018-03-07T16:59:51.313Z,36.81
2018-03-07T17:02:19.288Z,37.01
2018-03-07T17:04:47.233Z,37.14
2018-03-07T17:07:15.159Z,36.70
2018-03-07T17:09:43.080Z,35.89
2018-03-07T17:12:11.041Z,35.38
2018-03-07T17:14:38.981Z,35.48
2018-03-07T17:17:06.923Z,35.77
2018-03-07T17:19:34.838Z,36.30
2018-03-07T17:22:02.708Z,35.13
2018-03-07T17:24:30.625Z,34.67
2018-03-07T17:26:58.659Z,34.99
2018-03-07T17:29:26.648Z,35.41
2018-03-07T17:31:54.552Z,36.71
2018-03-07T17:34:22.474Z,37.96
2018-03-07T17:36:50.433Z,37.60
2018-03-07T17:39:18.394Z,37.83
2018-03-07T17:41:46.307Z,37.72
2018-03-07T17:44:14.397Z,38.45
2018-03-07T17:46:42.392Z,37.47
2018-03-07T17:49:10.331Z,37.39
2018-03-07T17:51:38.794Z,37.89
2018-03-07T17:54:06.730Z,37.13
2018-03-07T17:56:34.724Z,37.32
2018-03-07T17:59:02.669Z,39.82
2018-03-07T18:01:30.566Z,38.85
2018-03-07T18:03:58.461Z,37.65
2018-03-07T18:06:26.478Z,39.45
2018-03-07T18:08:54.512Z,39.47
2018-03-07T18:11:22.439Z,39.85
2018-03-07T18:13:50.353Z,38.89
2018-03-07T18:16:18.363Z,39.54
2018-03-07T18:18:46.192Z,39.82
2018-03-07T18:21:14.183Z,39.45
2018-03-07T18:23:42.169Z,39.95
2018-03-07T18:26:10.097Z,40.31
2018-03-07T18:28:38.035Z,40.15
2018-03-07T18:31:06.022Z,40.26
2018-03-07T18:33:33.970Z,39.96
2018-03-07T18:36:01.902Z,39.62
2018-03-07T18:38:29.849Z,39.38
2018-03-07T18:40:57.761Z,39.55
2018-03-07T18:43:25.693Z,38.67
2018-03-07T18:45:53.633Z,39.10
2018-03-07T18:48:21.624Z,38.59
2018-03-07T18:50:49.528Z,38.67
2018-03-07T18:53:17.973Z,40.63
2018-03-07T18:55:45.862Z,39.85
2018-03-07T18:58:13.801Z,39.43
2018-03-07T19:00:41.790Z,39.63
2018-03-07T19:03:09.722Z,39.82
2018-03-07T19:05:37.649Z,39.49
2018-03-07T19:08:08.459Z,41.54
2018-03-07T19:10:36.418Z,42.10
2018-03-07T19:13:04.346Z,43.30
2018-03-07T19:15:32.302Z,42.15
2018-03-07T19:18:00.270Z,42.13
2018-03-07T19:20:28.224Z,42.45
2018-03-07T19:22:56.186Z,42.80
2018-03-07T19:25:24.215Z,41.96
2018-03-07T19:27:52.169Z,41.44
2018-03-07T19:30:20.090Z,40.78
2018-03-07T19:32:48.394Z,40.70
2018-03-07T19:35:16.368Z,42.07
2018-03-07T19:37:45.325Z,41.52
2018-03-07T19:40:13.322Z,41.74
2018-03-07T19:42:41.283Z,41.72
2018-03-07T19:45:09.274Z,41.52
2018-03-07T19:47:37.214Z,41.69
2018-03-07T19:50:05.243Z,41.74
2018-03-07T19:52:33.173Z,41.82
2018-03-07T19:55:01.301Z,41.68
2018-03-07T19:57:30.387Z,41.42
2018-03-07T19:59:58.520Z,42.26
2018-03-07T20:02:26.497Z,43.01
2018-03-07T20:04:54.404Z,43.07
2018-03-07T20:07:22.414Z,43.04
2018-03-07T20:09:50.410Z,43.31
2018-03-07T20:12:18.331Z,44.34
2018-03-07T20:14:46.241Z,46.03
2018-03-07T20:17:14.157Z,44.28
2018-03-07T20:19:42.169Z,44.18
2018-03-07T20:22:10.126Z,44.27
2018-03-07T20:24:38.061Z,43.43
2018-03-07T20:27:06.048Z,43.50
2018-03-07T20:29:33.973Z,43.56
2018-03-07T20:32:01.884Z,43.63
2018-03-07T20:34:29.808Z,43.30
2018-03-07T20:36:57.745Z,43.15
2018-03-07T20:39:25.669Z,45.04
2018-03-07T20:41:53.645Z,44.70
2018-03-07T20:44:21.597Z,44.41
2018-03-07T20:46:49.521Z,44.61
2018-03-07T20:49:17.489Z,44.34
2018-03-07T20:51:45.529Z,45.94
2018-03-07T20:54:13.496Z,44.86
2018-03-07T20:56:41.573Z,44.64
2018-03-07T20:59:09.464Z,44.54
2018-03-07T21:01:37.417Z,45.06
2018-03-07T21:04:05.344Z,46.37
2018-03-07T21:06:33.389Z,46.28
2018-03-07T21:09:01.321Z,46.55
2018-03-07T21:11:29.328Z,45.96
2018-03-07T21:13:57.240Z,45.41
2018-03-07T21:16:25.197Z,46.15
2018-03-07T21:18:53.151Z,47.37
2018-03-07T21:21:21.123Z,47.53
2018-03-07T21:23:49.060Z,45.40
2018-03-07T21:26:16.976Z,44.64
2018-03-07T21:28:44.894Z,45.35
2018-03-07T21:31:12.898Z,44.76
2018-03-07T21:33:40.841Z,45.28
2018-03-07T21:36:08.845Z,45.16
2018-03-07T21:38:36.814Z,45.22
2018-03-07T21:41:04.856Z,45.44
2018-03-07T21:43:32.769Z,45.62
2018-03-07T21:46:00.705Z,46.70
2018-03-07T21:48:28.578Z,46.22
2018-03-07T21:50:56.482Z,48.74
2018-03-07T21:53:24.482Z,47.57
2018-03-07T21:55:52.483Z,47.35
2018-03-07T21:58:20.840Z,47.61
2018-03-07T22:00:48.774Z,47.50
2018-03-07T22:03:16.806Z,47.44
2018-03-07T22:05:44.805Z,47.44
2018-03-07T22:08:12.793Z,47.75
2018-03-07T22:10:40.750Z,47.28
2018-03-07T22:13:08.798Z,48.61
2018-03-07T22:15:36.801Z,47.87
2018-03-07T22:18:04.806Z,47.60
2018-03-07T22:20:32.750Z,47.50
2018-03-07T22:23:00.823Z,47.21
2018-03-07T22:25:28.784Z,49.67
2018-03-07T22:27:56.676Z,48.72
2018-03-07T22:30:24.569Z,47.79
2018-03-07T22:32:52.456Z,47.89
2018-03-07T22:35:20.416Z,48.01
2018-03-07T22:37:48.323Z,47.66
2018-03-07T22:40:16.306Z,47.84
2018-03-07T22:42:44.273Z,49.14
2018-03-07T22:45:12.224Z,48.88
2018-03-07T22:47:40.177Z,49.19
2018-03-07T22:50:08.095Z,51.30
2018-03-07T22:52:36.035Z,51.84
2018-03-07T22:55:03.997Z,49.32
2018-03-07T22:57:31.949Z,49.54
2018-03-07T23:00:00.252Z,49.36
2018-03-07T23:02:28.206Z,49.09
2018-03-07T23:04:56.180Z,48.96
2018-03-07T23:07:24.151Z,48.92
2018-03-07T23:09:52.116Z,49.00
2018-03-07T23:12:20.117Z,51.14
2018-03-07T23:14:48.154Z,52.42
2018-03-07T23:17:16.081Z,50.51
2018-03-07T23:19:44.066Z,49.99
2018-03-07T23:22:12.031Z,49.85
2018-03-07T23:24:39.928Z,50.30
2018-03-07T23:27:07.885Z,50.60
2018-03-07T23:29:35.817Z,50.10
2018-03-07T23:32:03.716Z,50.54
2018-03-07T23:34:31.621Z,50.49
2018-03-07T23:36:59.540Z,50.63
2018-03-07T23:39:27.449Z,50.63
2018-03-07T23:41:55.454Z,49.95
2018-03-07T23:44:23.442Z,50.02
2018-03-07T23:46:51.413Z,49.81
2018-03-07T23:49:19.317Z,50.35
2018-03-07T23:51:47.269Z,49.96
2018-03-07T23:54:15.252Z,49.90
2018-03-07T23:56:43.157Z,49.50
2018-03-07T23:59:11.065Z,50.10
